Time;durP1;ratioP1;P1;durP2;ratioP2;P2;SDS_P1;SDS_P2;PMS_P1;PMS_P2;Temp;Humidity;BMP_temperature;BMP_pressure;BME280_temperature;BME280_humidity;BME280_pressure;Samples;Min_cycle;Max_cycle;Signal;HPM_P1;HPM_P2
2021/11/04 00:00:26;;;;;;;69.90;37.05;;;;;;;;;;5073916;28;20574;-71
2021/11/04 00:02:54;;;;;;;78.65;37.60;;;;;;;;;;5073997;28;20277;-71
2021/11/04 00:05:21;;;;;;;64.55;33.25;;;;;;;;;;5074558;28;20196;-71
2021/11/04 00:07:51;;;;;;;73.68;37.22;;;;;;;;;;5074491;28;20198;-72
2021/11/04 00:10:19;;;;;;;65.07;35.03;;;;;;;;;;5074392;28;20208;-71
2021/11/04 00:12:47;;;;;;;73.30;37.10;;;;;;;;;;5073813;28;20207;-71
2021/11/04 00:15:15;;;;;;;76.53;36.77;;;;;;;;;;5073903;28;20669;-71
2021/11/04 00:17:43;;;;;;;77.43;36.28;;;;;;;;;;5073759;28;21018;-71
2021/11/04 00:20:11;;;;;;;64.65;37.65;;;;;;;;;;5073554;28;20705;-71
2021/11/04 00:22:39;;;;;;;70.35;34.67;;;;;;;;;;5074448;28;20231;-72
2021/11/04 00:25:06;;;;;;;64.68;34.78;;;;;;;;;;5073672;28;20197;-72
2021/11/04 00:27:34;;;;;;;62.33;34.75;;;;;;;;;;5071813;28;20723;-71
2021/11/04 00:30:02;;;;;;;74.10;39.08;;;;;;;;;;5073048;28;20554;-72
2021/11/04 00:32:30;;;;;;;71.30;36.08;;;;;;;;;;5073788;28;20282;-71
2021/11/04 00:34:57;;;;;;;73.88;36.25;;;;;;;;;;5074686;28;20244;-71
2021/11/04 00:37:25;;;;;;;72.25;36.00;;;;;;;;;;5073499;28;20226;-72
2021/11/04 00:39:52;;;;;;;67.03;35.65;;;;;;;;;;5073187;28;20218;-71
2021/11/04 00:42:19;;;;;;;74.72;36.45;;;;;;;;;;5073411;28;20208;-71
2021/11/04 00:44:46;;;;;;;63.53;33.45;;;;;;;;;;5073400;28;20287;-71
2021/11/04 00:47:15;;;;;;;63.22;35.10;;;;;;;;;;5073943;28;20562;-71
2021/11/04 00:49:42;;;;;;;60.92;33.47;;;;;;;;;;5073271;28;20202;-71
2021/11/04 00:52:09;;;;;;;74.50;35.58;;;;;;;;;;5073293;28;20324;-71
2021/11/04 00:54:36;;;;;;;71.43;34.75;;;;;;;;;;5073950;28;20558;-70
2021/11/04 00:57:04;;;;;;;64.38;35.00;;;;;;;;;;5073733;28;20196;-71
2021/11/04 00:59:31;;;;;;;60.90;33.45;;;;;;;;;;5071654;28;20311;-71
2021/11/04 01:01:58;;;;;;;62.33;31.27;;;;;;;;;;5073334;28;20246;-71
2021/11/04 01:04:27;;;;;;;57.95;32.85;;;;;;;;;;5073874;28;20193;-71
2021/11/04 01:06:54;;;;;;;65.35;34.25;;;;;;;;;;5073524;28;20287;-71
2021/11/04 01:09:21;;;;;;;62.53;36.15;;;;;;;;;;5073228;28;20239;-70
2021/11/04 01:11:49;;;;;;;70.60;34.30;;;;;;;;;;5073175;28;20199;-72
2021/11/04 01:14:16;;;;;;;68.45;36.08;;;;;;;;;;5072833;28;20677;-72
2021/11/04 01:16:43;;;;;;;60.13;35.03;;;;;;;;;;5073761;28;20195;-71
2021/11/04 01:19:12;;;;;;;66.88;34.42;;;;;;;;;;5072785;28;20751;-71
2021/11/04 01:21:41;;;;;;;64.10;34.22;;;;;;;;;;5073378;28;20204;-71
2021/11/04 01:24:08;;;;;;;72.18;36.97;;;;;;;;;;5073287;28;20196;-72
2021/11/04 01:26:36;;;;;;;66.10;35.20;;;;;;;;;;5072842;28;20229;-71
2021/11/04 01:29:03;;;;;;;65.60;33.75;;;;;;;;;;5071374;28;20235;-71
2021/11/04 01:31:30;;;;;;;64.85;35.20;;;;;;;;;;5072838;28;20298;-71
2021/11/04 01:33:57;;;;;;;63.95;33.80;;;;;;;;;;5073194;28;20192;-71
2021/11/04 01:36:25;;;;;;;69.25;35.03;;;;;;;;;;5072690;28;20196;-72
2021/11/04 01:38:53;;;;;;;70.78;33.50;;;;;;;;;;5073044;28;20243;-72
2021/11/04 01:41:20;;;;;;;61.53;33.50;;;;;;;;;;5072952;28;20192;-72
2021/11/04 01:43:48;;;;;;;70.35;34.47;;;;;;;;;;5076069;28;20199;-72
2021/11/04 01:46:15;;;;;;;63.55;33.08;;;;;;;;;;5077533;28;20223;-71
2021/11/04 01:48:42;;;;;;;63.63;31.92;;;;;;;;;;5076601;28;20196;-72
2021/11/04 01:51:10;;;;;;;75.43;36.83;;;;;;;;;;5076532;28;20557;-73
2021/11/04 01:53:38;;;;;;;69.13;35.78;;;;;;;;;;5076807;28;20228;-73
2021/11/04 01:56:06;;;;;;;64.32;30.90;;;;;;;;;;5076843;28;20287;-72
2021/11/04 01:58:33;;;;;;;64.93;33.78;;;;;;;;;;5076728;28;20287;-71
2021/11/04 02:01:01;;;;;;;73.40;35.92;;;;;;;;;;5073893;28;20578;-72
2021/11/04 02:03:31;;;;;;;64.13;32.05;;;;;;;;;;5076140;28;20196;-72
2021/11/04 02:06:04;;;;;;;66.63;33.53;;;;;;;;;;5075828;28;20660;-72
2021/11/04 02:08:35;;;;;;;72.13;37.00;;;;;;;;;;5075766;28;20192;-71
2021/11/04 02:11:06;;;;;;;76.30;32.65;;;;;;;;;;5074322;28;20643;-72
2021/11/04 02:13:39;;;;;;;76.88;37.70;;;;;;;;;;5074892;28;20283;-71
2021/11/04 02:16:06;;;;;;;71.20;36.85;;;;;;;;;;5076020;28;20189;-72
2021/11/04 02:18:35;;;;;;;66.05;36.47;;;;;;;;;;5075584;28;20286;-71
2021/11/04 02:21:07;;;;;;;74.25;37.65;;;;;;;;;;5075353;28;20232;-72
2021/11/04 02:23:36;;;;;;;70.35;37.92;;;;;;;;;;5076208;28;20208;-72
2021/11/04 02:26:05;;;;;;;73.40;37.28;;;;;;;;;;5075662;28;20304;-72
2021/11/04 02:28:33;;;;;;;70.68;33.97;;;;;;;;;;5076306;28;20202;-72
2021/11/04 02:31:01;;;;;;;79.88;38.88;;;;;;;;;;5073781;28;20258;-72
2021/11/04 02:33:28;;;;;;;77.50;38.65;;;;;;;;;;5075448;28;20203;-71
2021/11/04 02:35:56;;;;;;;71.53;33.70;;;;;;;;;;5075361;28;20646;-71
2021/11/04 02:38:24;;;;;;;71.35;37.38;;;;;;;;;;5074960;28;20196;-71
2021/11/04 02:40:53;;;;;;;80.05;39.20;;;;;;;;;;5074585;28;20266;-71
2021/11/04 02:43:22;;;;;;;77.55;36.38;;;;;;;;;;5075382;28;20193;-71
2021/11/04 02:45:49;;;;;;;79.65;39.25;;;;;;;;;;5074904;28;20195;-70
2021/11/04 02:48:17;;;;;;;74.55;36.90;;;;;;;;;;5075351;28;20641;-71
2021/11/04 02:50:46;;;;;;;71.20;37.75;;;;;;;;;;5074432;28;20205;-70
2021/11/04 02:53:15;;;;;;;80.72;38.53;;;;;;;;;;5074826;28;20240;-70
2021/11/04 02:55:43;;;;;;;82.40;36.95;;;;;;;;;;5075061;28;20197;-72
2021/11/04 02:58:11;;;;;;;75.22;40.30;;;;;;;;;;5075694;28;20192;-72
2021/11/04 03:00:41;;;;;;;69.80;34.85;;;;;;;;;;5072442;28;20220;-72
2021/11/04 03:03:08;;;;;;;67.07;34.95;;;;;;;;;;5074158;28;20281;-71
2021/11/04 03:05:36;;;;;;;73.13;35.30;;;;;;;;;;5075416;28;20196;-71
2021/11/04 03:08:03;;;;;;;78.40;37.15;;;;;;;;;;5075274;28;20307;-71
2021/11/04 03:10:30;;;;;;;79.50;37.97;;;;;;;;;;5074837;28;20546;-71
2021/11/04 03:12:57;;;;;;;74.38;37.70;;;;;;;;;;5074973;28;20193;-71
2021/11/04 03:15:25;;;;;;;87.03;38.28;;;;;;;;;;5074457;28;20221;-71
2021/11/04 03:17:55;;;;;;;84.50;39.78;;;;;;;;;;5074763;28;20203;-72
2021/11/04 03:20:22;;;;;;;78.50;37.53;;;;;;;;;;5074447;28;20302;-72
2021/11/04 03:22:50;;;;;;;82.10;37.58;;;;;;;;;;5074342;28;20193;-72
2021/11/04 03:25:19;;;;;;;80.57;38.30;;;;;;;;;;5075159;28;20204;-71
2021/11/04 03:27:48;;;;;;;75.78;37.80;;;;;;;;;;5074435;28;20299;-71
2021/11/04 03:30:17;;;;;;;84.60;37.45;;;;;;;;;;5074111;28;20647;-72
2021/11/04 03:32:46;;;;;;;85.88;39.38;;;;;;;;;;5053920;28;20533;-71
2021/11/04 03:35:15;;;;;;;78.65;35.15;;;;;;;;;;5054523;28;20204;-71
2021/11/04 03:37:46;;;;;;;76.50;36.70;;;;;;;;;;5054242;28;20623;-71
2021/11/04 03:40:13;;;;;;;81.00;36.58;;;;;;;;;;5054219;28;20220;-70
2021/11/04 03:42:41;;;;;;;67.68;32.28;;;;;;;;;;5053838;28;20671;-71
2021/11/04 03:45:09;;;;;;;85.70;36.58;;;;;;;;;;5054529;28;20202;-71
2021/11/04 03:47:36;;;;;;;71.97;34.10;;;;;;;;;;5053841;28;20197;-71
2021/11/04 03:50:04;;;;;;;81.18;37.70;;;;;;;;;;5053821;28;20211;-71
2021/11/04 03:52:33;;;;;;;79.53;36.63;;;;;;;;;;5053105;28;20225;-72
2021/11/04 03:55:00;;;;;;;86.13;36.90;;;;;;;;;;5054052;28;20198;-71
2021/11/04 03:57:28;;;;;;;71.30;36.60;;;;;;;;;;5053710;28;20669;-71
2021/11/04 03:59:55;;;;;;;80.28;35.17;;;;;;;;;;5058533;28;20225;-72
2021/11/04 04:02:25;;;;;;;79.25;34.65;;;;;;;;;;5072409;28;20201;-71
2021/11/04 04:04:54;;;;;;;82.95;36.20;;;;;;;;;;5072986;28;20285;-72
2021/11/04 04:07:22;;;;;;;81.10;36.63;;;;;;;;;;5074276;28;20244;-72
2021/11/04 04:09:51;;;;;;;61.67;28.52;;;;;;;;;;5073341;28;20202;-71
2021/11/04 04:12:18;;;;;;;69.13;30.27;;;;;;;;;;5073420;28;20197;-70
2021/11/04 04:14:45;;;;;;;84.00;34.60;;;;;;;;;;5073347;28;20197;-71
2021/11/04 04:17:12;;;;;;;66.47;31.65;;;;;;;;;;5073587;28;20197;-71
2021/11/04 04:19:39;;;;;;;81.90;33.80;;;;;;;;;;5074189;28;20288;-71
2021/11/04 04:22:07;;;;;;;69.22;32.08;;;;;;;;;;5073278;28;20204;-71
2021/11/04 04:24:34;;;;;;;64.60;30.92;;;;;;;;;;5073581;28;20295;-71
2021/11/04 04:27:03;;;;;;;86.30;33.47;;;;;;;;;;5073366;28;20203;-71
2021/11/04 04:29:31;;;;;;;75.15;32.78;;;;;;;;;;5073203;28;20220;-72
2021/11/04 04:31:59;;;;;;;77.32;32.38;;;;;;;;;;5072561;28;20206;-71
2021/11/04 04:34:26;;;;;;;78.40;30.27;;;;;;;;;;5073781;28;20340;-71
2021/11/04 04:36:53;;;;;;;70.68;31.05;;;;;;;;;;5073531;28;20551;-71
2021/11/04 04:39:21;;;;;;;76.75;31.73;;;;;;;;;;5073052;28;20193;-71
2021/11/04 04:41:48;;;;;;;69.13;32.33;;;;;;;;;;5072878;28;20331;-72
2021/11/04 04:44:16;;;;;;;74.50;32.53;;;;;;;;;;5073314;28;20202;-71
2021/11/04 04:46:44;;;;;;;58.97;25.48;;;;;;;;;;5073007;28;20200;-71
2021/11/04 04:49:11;;;;;;;67.85;30.45;;;;;;;;;;5072858;28;20200;-71
2021/11/04 04:51:38;;;;;;;79.30;32.05;;;;;;;;;;5072524;28;20193;-71
2021/11/04 04:54:05;;;;;;;79.65;32.30;;;;;;;;;;5073581;28;20396;-72
2021/11/04 04:56:33;;;;;;;70.75;30.15;;;;;;;;;;5072898;28;20198;-71
2021/11/04 04:59:01;;;;;;;74.18;30.65;;;;;;;;;;5073111;28;20200;-71
2021/11/04 05:01:30;;;;;;;80.78;33.03;;;;;;;;;;5070971;28;20245;-71
2021/11/04 05:03:57;;;;;;;69.85;34.13;;;;;;;;;;5072162;28;20206;-71
2021/11/04 05:06:24;;;;;;;71.75;32.35;;;;;;;;;;5072937;28;20287;-72
2021/11/04 05:08:52;;;;;;;66.15;33.25;;;;;;;;;;5072608;28;20288;-71
2021/11/04 05:11:19;;;;;;;74.65;31.30;;;;;;;;;;5073131;28;20282;-72
2021/11/04 05:13:46;;;;;;;84.93;34.63;;;;;;;;;;5072992;28;20193;-75
2021/11/04 05:16:13;;;;;;;75.32;32.75;;;;;;;;;;5072923;28;20284;-72
2021/11/04 05:18:42;;;;;;;65.32;31.48;;;;;;;;;;5076731;28;20669;-72
2021/11/04 05:21:10;;;;;;;80.20;33.55;;;;;;;;;;5076442;28;20220;-71
2021/11/04 05:23:38;;;;;;;74.75;32.85;;;;;;;;;;5076442;28;20203;-71
2021/11/04 05:26:05;;;;;;;70.78;31.98;;;;;;;;;;5076921;28;20197;-71
2021/11/04 05:28:32;;;;;;;70.95;32.10;;;;;;;;;;5076697;28;20206;-74
2021/11/04 05:31:00;;;;;;;73.47;33.03;;;;;;;;;;5074728;28;20223;-73
2021/11/04 05:33:28;;;;;;;67.47;31.45;;;;;;;;;;5093897;28;20193;-74
2021/11/04 05:35:56;;;;;;;85.10;33.08;;;;;;;;;;5096627;28;20709;-73
2021/11/04 05:38:23;;;;;;;76.22;33.00;;;;;;;;;;5097642;28;20196;-73
2021/11/04 05:40:51;;;;;;;67.05;31.10;;;;;;;;;;5096437;28;20223;-73
2021/11/04 05:43:18;;;;;;;63.75;30.00;;;;;;;;;;5096858;28;20192;-73
2021/11/04 05:45:45;;;;;;;61.70;29.08;;;;;;;;;;5096496;28;20199;-74
2021/11/04 05:48:12;;;;;;;59.22;27.80;;;;;;;;;;5096724;28;20560;-73
2021/11/04 05:50:39;;;;;;;60.75;27.52;;;;;;;;;;5096541;28;20211;-73
2021/11/04 05:53:08;;;;;;;70.85;32.83;;;;;;;;;;5095987;28;20786;-74
2021/11/04 05:55:35;;;;;;;64.50;27.85;;;;;;;;;;5096286;28;20239;-72
2021/11/04 05:58:02;;;;;;;66.95;28.90;;;;;;;;;;5096774;28;20750;-72
2021/11/04 06:00:30;;;;;;;65.15;29.90;;;;;;;;;;5094471;28;20253;-72
2021/11/04 06:02:57;;;;;;;64.85;30.48;;;;;;;;;;5088929;28;20285;-73
2021/11/04 06:05:24;;;;;;;65.53;28.15;;;;;;;;;;5096216;28;20652;-73
2021/11/04 06:07:51;;;;;;;62.10;29.75;;;;;;;;;;5096435;28;20625;-72
2021/11/04 06:10:20;;;;;;;56.40;28.65;;;;;;;;;;5096150;28;20286;-72
2021/11/04 06:12:47;;;;;;;50.17;24.33;;;;;;;;;;5094957;28;20622;-72
2021/11/04 06:15:14;;;;;;;58.42;27.50;;;;;;;;;;5094598;28;20202;-72
2021/11/04 06:17:41;;;;;;;59.65;28.95;;;;;;;;;;5095613;28;20625;-72
2021/11/04 06:20:09;;;;;;;57.42;29.08;;;;;;;;;;5096020;28;20193;-73
2021/11/04 06:22:36;;;;;;;54.75;27.38;;;;;;;;;;5095215;28;20283;-72
2021/11/04 06:25:04;;;;;;;56.83;25.92;;;;;;;;;;5094700;28;20560;-72
2021/11/04 06:27:33;;;;;;;70.25;28.17;;;;;;;;;;5094407;28;20211;-67
2021/11/04 06:30:01;;;;;;;59.13;27.63;;;;;;;;;;5095682;28;20277;-74
2021/11/04 06:32:29;;;;;;;53.80;27.38;;;;;;;;;;5076514;28;20200;-75
2021/11/04 06:34:56;;;;;;;59.00;28.25;;;;;;;;;;5075070;28;20197;-74
2021/11/04 06:37:23;;;;;;;69.47;30.15;;;;;;;;;;5076070;28;20641;-74
2021/11/04 06:39:50;;;;;;;55.30;27.08;;;;;;;;;;5074929;28;20230;-74
2021/11/04 06:42:17;;;;;;;51.80;27.38;;;;;;;;;;5075265;28;20223;-75
2021/11/04 06:44:46;;;;;;;48.40;25.75;;;;;;;;;;5075517;28;20274;-75
2021/11/04 06:47:15;;;;;;;56.88;27.55;;;;;;;;;;5075206;28;20204;-75
2021/11/04 06:49:43;;;;;;;51.63;28.95;;;;;;;;;;5074903;28;20196;-75
2021/11/04 06:52:16;;;;;;;46.65;24.98;;;;;;;;;;5074696;28;20223;-75
2021/11/04 06:54:49;;;;;;;60.70;26.88;;;;;;;;;;5074687;28;20191;-75
2021/11/04 06:57:20;;;;;;;51.78;25.80;;;;;;;;;;5075727;28;20192;-74
2021/11/04 06:59:50;;;;;;;47.97;23.40;;;;;;;;;;5075482;28;20181;-75
2021/11/04 07:02:27;;;;;;;48.63;25.73;;;;;;;;;;5073140;28;20249;-75
2021/11/04 07:04:56;;;;;;;44.05;24.67;;;;;;;;;;5074659;28;20185;-75
2021/11/04 07:07:24;;;;;;;53.25;25.42;;;;;;;;;;5075046;28;20187;-75
2021/11/04 07:09:52;;;;;;;49.58;25.10;;;;;;;;;;5074680;28;20701;-74
2021/11/04 07:12:19;;;;;;;43.50;24.50;;;;;;;;;;5074752;28;20205;-75
2021/11/04 07:14:47;;;;;;;48.10;23.85;;;;;;;;;;5074358;28;20197;-75
2021/11/04 07:17:16;;;;;;;41.35;22.80;;;;;;;;;;5074354;28;20650;-74
2021/11/04 07:19:45;;;;;;;48.15;26.35;;;;;;;;;;5074831;28;20201;-75
2021/11/04 07:22:23;;;;;;;47.40;27.10;;;;;;;;;;5075129;28;20552;-75
2021/11/04 07:24:56;;;;;;;47.83;25.70;;;;;;;;;;5074044;28;20203;-74
2021/11/04 07:27:33;;;;;;;35.50;21.83;;;;;;;;;;5074679;28;20216;-75
2021/11/04 07:30:02;;;;;;;43.47;24.05;;;;;;;;;;5074203;28;20183;-75
2021/11/04 07:32:32;;;;;;;37.85;21.92;;;;;;;;;;5072638;28;20294;-75
2021/11/04 07:34:59;;;;;;;38.22;22.92;;;;;;;;;;5074386;28;20204;-74
2021/11/04 07:37:27;;;;;;;35.28;22.65;;;;;;;;;;5074298;28;20321;-76
2021/11/04 07:39:54;;;;;;;39.00;22.30;;;;;;;;;;5074272;28;20204;-75
2021/11/04 07:42:21;;;;;;;39.92;21.80;;;;;;;;;;5073569;28;20216;-75
2021/11/04 07:44:48;;;;;;;39.72;22.33;;;;;;;;;;5073685;28;20672;-76
2021/11/04 07:47:15;;;;;;;34.50;19.17;;;;;;;;;;5074836;28;20200;-74
2021/11/04 07:49:44;;;;;;;37.65;20.45;;;;;;;;;;5074300;28;20195;-76
2021/11/04 07:52:11;;;;;;;34.55;19.58;;;;;;;;;;5073684;28;20223;-75
2021/11/04 07:54:38;;;;;;;38.90;20.95;;;;;;;;;;5073690;28;20185;-75
2021/11/04 07:57:06;;;;;;;36.25;19.50;;;;;;;;;;5073634;28;20191;-75
2021/11/04 07:59:33;;;;;;;32.30;18.98;;;;;;;;;;5073738;28;20200;-75
2021/11/04 08:02:01;;;;;;;29.27;18.15;;;;;;;;;;5071791;28;21027;-73
2021/11/04 08:04:28;;;;;;;30.67;18.95;;;;;;;;;;5073273;28;20200;-74
2021/11/04 08:06:57;;;;;;;34.42;20.00;;;;;;;;;;5073378;28;20253;-75
2021/11/04 08:09:24;;;;;;;34.88;18.02;;;;;;;;;;5074184;28;20199;-74
2021/11/04 08:11:52;;;;;;;35.28;19.73;;;;;;;;;;5073341;28;20204;-74
2021/11/04 08:14:19;;;;;;;34.55;18.30;;;;;;;;;;5072537;28;20235;-75
2021/11/04 08:16:47;;;;;;;30.08;19.23;;;;;;;;;;5072191;28;20659;-74
2021/11/04 08:19:14;;;;;;;33.05;18.77;;;;;;;;;;5073607;28;20196;-74
2021/11/04 08:21:41;;;;;;;25.92;15.50;;;;;;;;;;5073633;28;20319;-76
2021/11/04 08:24:10;;;;;;;34.10;17.42;;;;;;;;;;5073318;28;20670;-75
2021/11/04 08:26:37;;;;;;;31.20;18.13;;;;;;;;;;5073303;28;20658;-75
2021/11/04 08:29:04;;;;;;;29.98;18.25;;;;;;;;;;5073146;28;20193;-74
2021/11/04 08:31:31;;;;;;;28.85;16.50;;;;;;;;;;5073624;28;20263;-74
2021/11/04 08:33:59;;;;;;;26.63;15.73;;;;;;;;;;5071578;28;20286;-75
2021/11/04 08:36:26;;;;;;;28.10;16.20;;;;;;;;;;5072873;28;20265;-74
2021/11/04 08:38:53;;;;;;;27.50;16.50;;;;;;;;;;5073520;28;20207;-75
2021/11/04 08:41:23;;;;;;;24.35;14.48;;;;;;;;;;5072766;28;20225;-74
2021/11/04 08:43:50;;;;;;;25.80;16.42;;;;;;;;;;5072649;28;20296;-75
2021/11/04 08:46:18;;;;;;;30.88;17.30;;;;;;;;;;5072926;28;20286;-75
2021/11/04 08:48:45;;;;;;;27.17;16.90;;;;;;;;;;5073148;28;20197;-75
2021/11/04 08:51:12;;;;;;;25.60;16.85;;;;;;;;;;5072625;28;20275;-75
2021/11/04 08:53:40;;;;;;;30.00;17.67;;;;;;;;;;5073063;28;20340;-74
2021/11/04 08:56:07;;;;;;;24.77;15.35;;;;;;;;;;5072947;28;20199;-75
2021/11/04 08:58:36;;;;;;;28.23;17.35;;;;;;;;;;5072542;28;20199;-74
2021/11/04 09:01:03;;;;;;;24.83;16.77;;;;;;;;;;5072661;28;20284;-76
2021/11/04 09:03:31;;;;;;;31.27;16.05;;;;;;;;;;5072570;28;20647;-75
2021/11/04 09:05:58;;;;;;;30.83;17.88;;;;;;;;;;5071071;28;20270;-75
2021/11/04 09:08:26;;;;;;;28.23;15.52;;;;;;;;;;5072398;28;20742;-75
2021/11/04 09:10:54;;;;;;;23.58;16.35;;;;;;;;;;5072797;28;20204;-75
2021/11/04 09:13:21;;;;;;;23.92;15.68;;;;;;;;;;5073435;28;20302;-75
2021/11/04 09:15:50;;;;;;;24.75;16.45;;;;;;;;;;5072665;28;20235;-75
2021/11/04 09:18:18;;;;;;;26.60;16.33;;;;;;;;;;5072724;28;20262;-75
2021/11/04 09:20:45;;;;;;;23.17;15.07;;;;;;;;;;5074262;28;20201;-74
2021/11/04 09:23:12;;;;;;;25.67;14.73;;;;;;;;;;5092580;28;20764;-75
2021/11/04 09:25:40;;;;;;;29.52;16.88;;;;;;;;;;5092624;28;20228;-75
2021/11/04 09:28:07;;;;;;;27.55;15.75;;;;;;;;;;5092337;28;20283;-76
2021/11/04 09:30:34;;;;;;;30.30;16.45;;;;;;;;;;5093076;28;20200;-75
2021/11/04 09:33:03;;;;;;;28.70;16.00;;;;;;;;;;5092937;28;20203;-75
2021/11/04 09:35:30;;;;;;;29.23;17.77;;;;;;;;;;5088890;28;20206;-75
2021/11/04 09:37:58;;;;;;;23.33;15.15;;;;;;;;;;5071086;28;20655;-76
2021/11/04 09:40:27;;;;;;;24.20;14.20;;;;;;;;;;5072058;28;20649;-75
2021/11/04 09:42:54;;;;;;;20.20;12.20;;;;;;;;;;5072141;28;20225;-75
2021/11/04 09:45:22;;;;;;;20.98;15.40;;;;;;;;;;5072053;28;20199;-76
2021/11/04 09:47:49;;;;;;;27.05;15.82;;;;;;;;;;5072014;28;20669;-75
2021/11/04 09:50:18;;;;;;;25.70;15.85;;;;;;;;;;5072170;28;20201;-75
2021/11/04 09:52:46;;;;;;;23.45;14.63;;;;;;;;;;5072589;28;20312;-74
2021/11/04 09:55:17;;;;;;;26.65;15.88;;;;;;;;;;5072312;28;20193;-75
2021/11/04 09:57:45;;;;;;;20.77;11.48;;;;;;;;;;5072880;28;20189;-75
2021/11/04 10:00:12;;;;;;;24.00;14.60;;;;;;;;;;5072566;28;20233;-74
2021/11/04 10:02:43;;;;;;;21.65;13.35;;;;;;;;;;5072260;28;20568;-75
2021/11/04 10:05:11;;;;;;;24.65;15.77;;;;;;;;;;5072930;28;20199;-73
2021/11/04 10:07:44;;;;;;;22.55;13.10;;;;;;;;;;5075974;28;20560;-75
2021/11/04 10:10:11;;;;;;;24.15;12.68;;;;;;;;;;5075408;28;20235;-75
2021/11/04 10:12:55;;;;;;;19.50;13.05;;;;;;;;;;5075584;28;20204;-75
2021/11/04 10:15:23;;;;;;;21.48;12.80;;;;;;;;;;5074489;28;20188;-74
2021/11/04 10:17:50;;;;;;;22.95;13.52;;;;;;;;;;5074371;28;20195;-75
2021/11/04 10:20:18;;;;;;;16.58;10.95;;;;;;;;;;5075872;28;20552;-75
2021/11/04 10:22:59;;;;;;;21.65;12.52;;;;;;;;;;5076009;28;20256;-75
2021/11/04 10:25:26;;;;;;;26.52;14.43;;;;;;;;;;5075833;28;20192;-75
2021/11/04 10:27:54;;;;;;;18.60;12.25;;;;;;;;;;5075396;28;20254;-75
2021/11/04 10:30:35;;;;;;;19.00;11.85;;;;;;;;;;5075136;28;20292;-75
2021/11/04 10:33:18;;;;;;;24.45;13.00;;;;;;;;;;5075078;28;20234;-74
2021/11/04 10:35:50;;;;;;;21.45;12.35;;;;;;;;;;5073860;28;20269;-75
2021/11/04 10:38:18;;;;;;;20.60;12.85;;;;;;;;;;5075286;28;20279;-75
2021/11/04 10:40:45;;;;;;;19.50;12.70;;;;;;;;;;5075292;28;20677;-75
2021/11/04 10:43:12;;;;;;;20.98;12.45;;;;;;;;;;5075069;28;20218;-75
2021/11/04 10:45:40;;;;;;;19.67;12.80;;;;;;;;;;5074907;28;20303;-74
2021/11/04 10:48:16;;;;;;;22.50;13.68;;;;;;;;;;5075247;28;20672;-74
2021/11/04 10:50:44;;;;;;;16.70;10.00;;;;;;;;;;5074942;28;20194;-74
2021/11/04 10:53:12;;;;;;;14.90;11.68;;;;;;;;;;5075383;28;20692;-75
2021/11/04 10:55:41;;;;;;;19.95;11.25;;;;;;;;;;5074641;28;20555;-75
2021/11/04 10:58:26;;;;;;;18.08;12.23;;;;;;;;;;5075113;28;20206;-75
2021/11/04 11:00:53;;;;;;;17.63;12.40;;;;;;;;;;5075678;28;20273;-74
2021/11/04 11:03:22;;;;;;;21.55;11.70;;;;;;;;;;5075233;28;20236;-75
2021/11/04 11:05:50;;;;;;;14.70;10.50;;;;;;;;;;5073145;28;20199;-76
2021/11/04 11:08:18;;;;;;;19.17;13.63;;;;;;;;;;5074237;28;20667;-74
2021/11/04 11:10:46;;;;;;;17.83;12.65;;;;;;;;;;5074654;28;20677;-74
2021/11/04 11:13:14;;;;;;;22.63;13.50;;;;;;;;;;5074989;28;20605;-74
2021/11/04 11:15:42;;;;;;;23.05;14.60;;;;;;;;;;5074242;28;20201;-75
2021/11/04 11:18:10;;;;;;;22.98;15.45;;;;;;;;;;5074487;28;20202;-75
2021/11/04 11:20:42;;;;;;;19.65;14.00;;;;;;;;;;5073937;28;20284;-74
2021/11/04 11:23:09;;;;;;;18.85;14.05;;;;;;;;;;5074251;28;20377;-75
2021/11/04 11:25:37;;;;;;;17.92;12.93;;;;;;;;;;5074162;28;20287;-76
2021/11/04 11:28:06;;;;;;;20.05;13.15;;;;;;;;;;5074362;28;20196;-74
2021/11/04 11:30:34;;;;;;;26.42;14.30;;;;;;;;;;5073922;28;20320;-73
2021/11/04 11:33:16;;;;;;;25.48;14.50;;;;;;;;;;5074532;28;20207;-75
2021/11/04 11:35:43;;;;;;;20.70;14.60;;;;;;;;;;5070780;28;20201;-76
2021/11/04 11:38:10;;;;;;;19.02;14.00;;;;;;;;;;5074353;28;20611;-74
2021/11/04 11:40:38;;;;;;;25.08;15.18;;;;;;;;;;5074137;28;20670;-75
2021/11/04 11:43:09;;;;;;;16.00;11.25;;;;;;;;;;5074300;28;20218;-73
2021/11/04 11:45:37;;;;;;;21.70;15.93;;;;;;;;;;5074361;28;20236;-75
2021/11/04 11:48:25;;;;;;;19.45;14.95;;;;;;;;;;5073585;28;20305;-75
2021/11/04 11:50:53;;;;;;;20.08;12.60;;;;;;;;;;5069023;28;20224;-75
2021/11/04 11:53:24;;;;;;;20.58;13.90;;;;;;;;;;5073820;28;20789;-74
2021/11/04 11:55:53;;;;;;;20.43;14.03;;;;;;;;;;5073884;28;20197;-74
2021/11/04 11:58:23;;;;;;;16.27;10.13;;;;;;;;;;5073844;28;20439;-76
2021/11/04 12:00:57;;;;;;;18.70;12.60;;;;;;;;;;5074526;28;20193;-75
2021/11/04 12:03:43;;;;;;;16.67;13.10;;;;;;;;;;5073664;28;20463;-75
2021/11/04 12:06:25;;;;;;;13.43;9.43;;;;;;;;;;5071814;28;20204;-76
2021/11/04 12:08:55;;;;;;;19.67;10.75;;;;;;;;;;5073425;28;20454;-75
2021/11/04 12:11:40;;;;;;;18.75;14.20;;;;;;;;;;5073774;28;20196;-76
2021/11/04 12:14:24;;;;;;;16.65;12.13;;;;;;;;;;5074005;28;20194;-75
2021/11/04 12:17:07;;;;;;;16.25;11.48;;;;;;;;;;5071856;28;20201;-75
2021/11/04 12:19:35;;;;;;;16.23;11.30;;;;;;;;;;5073700;28;20186;-75
2021/11/04 12:22:02;;;;;;;16.27;12.15;;;;;;;;;;5073335;28;20927;-75
2021/11/04 12:24:30;;;;;;;18.90;13.20;;;;;;;;;;5073506;28;20197;-73
2021/11/04 12:26:57;;;;;;;18.40;13.65;;;;;;;;;;5072199;28;20203;-77
2021/11/04 12:29:25;;;;;;;20.75;14.32;;;;;;;;;;5073596;28;20572;-74
2021/11/04 12:31:52;;;;;;;20.25;12.10;;;;;;;;;;5072800;28;20376;-75
2021/11/04 12:34:22;;;;;;;17.30;13.68;;;;;;;;;;5073328;28;20203;-73
2021/11/04 12:36:52;;;;;;;18.00;12.77;;;;;;;;;;5071036;28;20211;-75
2021/11/04 12:39:22;;;;;;;19.13;13.73;;;;;;;;;;5073457;28;20249;-75
2021/11/04 12:41:50;;;;;;;17.88;13.77;;;;;;;;;;5072958;28;20731;-75
2021/11/04 12:44:22;;;;;;;13.57;9.13;;;;;;;;;;5073212;28;20226;-75
2021/11/04 12:46:49;;;;;;;18.95;13.55;;;;;;;;;;5072886;28;20283;-76
2021/11/04 12:49:17;;;;;;;16.38;13.18;;;;;;;;;;5072839;28;20785;-75
2021/11/04 12:51:47;;;;;;;18.80;14.20;;;;;;;;;;5073292;28;20191;-75
2021/11/04 12:54:16;;;;;;;17.10;13.00;;;;;;;;;;5070358;28;20234;-75
2021/11/04 12:56:44;;;;;;;16.50;11.50;;;;;;;;;;5072160;28;20247;-74
2021/11/04 12:59:12;;;;;;;19.50;13.73;;;;;;;;;;5073048;28;20476;-75
2021/11/04 13:01:58;;;;;;;18.33;11.98;;;;;;;;;;5073561;28;20531;-74
2021/11/04 13:04:27;;;;;;;20.63;14.00;;;;;;;;;;5072439;28;20706;-75
2021/11/04 13:06:54;;;;;;;12.83;9.70;;;;;;;;;;5070688;28;20604;-74
2021/11/04 13:09:23;;;;;;;20.35;14.43;;;;;;;;;;5072077;28;20451;-67
2021/11/04 13:12:10;;;;;;;18.70;13.67;;;;;;;;;;5072719;28;20248;-71
2021/11/04 13:14:58;;;;;;;21.13;14.07;;;;;;;;;;5072997;28;20843;-70
2021/11/04 13:17:26;;;;;;;19.80;13.43;;;;;;;;;;5072597;28;20436;-71
2021/11/04 13:19:57;;;;;;;17.53;11.00;;;;;;;;;;5072871;28;20452;-70
2021/11/04 13:22:25;;;;;;;15.00;12.27;;;;;;;;;;5073124;28;20440;-71
2021/11/04 13:24:56;;;;;;;15.97;12.17;;;;;;;;;;5072990;28;20460;-71
2021/11/04 13:27:24;;;;;;;16.73;11.60;;;;;;;;;;5071974;28;20453;-71
2021/11/04 13:29:52;;;;;;;12.90;9.23;;;;;;;;;;5072648;28;20525;-71
2021/11/04 13:32:20;;;;;;;15.50;11.63;;;;;;;;;;5072209;28;20537;-71
2021/11/04 13:34:48;;;;;;;17.27;12.13;;;;;;;;;;5072790;28;20453;-70
2021/11/04 13:37:16;;;;;;;30.90;10.73;;;;;;;;;;5071676;28;20441;-70
2021/11/04 13:39:43;;;;;;;22.17;11.60;;;;;;;;;;5076063;28;20527;-70
2021/11/04 13:42:22;;;;;;;20.10;12.13;;;;;;;;;;5076571;28;20574;-71
2021/11/04 13:44:49;;;;;;;16.23;12.13;;;;;;;;;;5076056;28;20470;-70
2021/11/04 13:47:17;;;;;;;12.90;9.60;;;;;;;;;;5076323;28;20542;-70
2021/11/04 13:49:53;;;;;;;15.90;12.33;;;;;;;;;;5076215;28;20464;-71
2021/11/04 13:52:25;;;;;;;16.70;11.83;;;;;;;;;;5075982;28;20490;-71
2021/11/04 13:54:52;;;;;;;14.50;10.93;;;;;;;;;;5076566;28;20435;-70
2021/11/04 13:57:20;;;;;;;16.33;12.37;;;;;;;;;;5075373;28;20450;-71
2021/11/04 13:59:56;;;;;;;17.67;12.60;;;;;;;;;;5076161;28;20483;-71
2021/11/04 14:02:25;;;;;;;15.70;11.30;;;;;;;;;;5076856;28;20824;-70
2021/11/04 14:04:53;;;;;;;19.33;12.60;;;;;;;;;;5075809;28;21007;-71
2021/11/04 14:07:24;;;;;;;15.70;12.77;;;;;;;;;;5074575;28;20894;-71
2021/11/04 14:09:56;;;;;;;17.20;12.67;;;;;;;;;;5075863;28;20505;-71
2021/11/04 14:12:26;;;;;;;14.53;12.40;;;;;;;;;;5075973;28;20437;-70
2021/11/04 14:14:56;;;;;;;14.63;12.97;;;;;;;;;;5075787;28;20455;-71
2021/11/04 14:17:27;;;;;;;17.52;11.25;;;;;;;;;;5076285;28;20486;-71
2021/11/04 14:19:55;;;;;;;17.23;12.07;;;;;;;;;;5075538;28;20559;-71
2021/11/04 14:22:22;;;;;;;15.63;11.80;;;;;;;;;;5075224;28;20554;-71
2021/11/04 14:24:50;;;;;;;24.13;14.67;;;;;;;;;;5075545;28;20490;-70